Edmonton Namao Alta., Canada
Current Conditions -  °F | °C
As of 5:26 AM on Tuesday 27 Jan 2015 (Local Time) from CYXD Reporting Station
Clear Clear  
Wind Chill:   Ceiling: Unl
Heat Index:   Visibility: 1mi
Dew Point:   Wind: 2mph
Humidity: 93%   Direction: 60°ENE
Pressure: 29.78"   Gusts: NA
Location:  53.61°N, 113.46°W
Report Text: CYXD 271226Z AUTO 06002KT 1SM CLR 01/00 A2978
Loading
Personal Weather Stations






























Interactive Weather Map New forecast layout! Learn more

10-Day Weather Forecast

Advertisements
Track Severe Weather on mobile